createdAt,value
2018-01-27T00:00:03.310Z,84.49
2018-01-27T00:01:03.305Z,84.30
2018-01-27T00:02:03.292Z,83.73
2018-01-27T00:03:03.349Z,84.30
2018-01-27T00:04:03.284Z,84.01
2018-01-27T00:05:03.276Z,83.83
2018-01-27T00:06:03.267Z,83.73
2018-01-27T00:07:03.264Z,83.92
2018-01-27T00:08:03.284Z,83.92
2018-01-27T00:09:03.250Z,84.11
2018-01-27T00:10:03.251Z,84.01
2018-01-27T00:11:03.240Z,83.83
2018-01-27T00:12:03.236Z,83.83
2018-01-27T00:13:03.223Z,83.83
2018-01-27T00:14:03.223Z,84.01
2018-01-27T00:15:03.217Z,83.92
2018-01-27T00:16:03.219Z,83.83
2018-01-27T00:17:03.201Z,84.01
2018-01-27T00:18:03.192Z,84.01
2018-01-27T00:19:03.189Z,83.83
2018-01-27T00:20:03.186Z,84.30
2018-01-27T00:21:03.172Z,84.30
2018-01-27T00:22:03.172Z,84.49
2018-01-27T00:23:03.169Z,84.40
2018-01-27T00:24:03.164Z,84.68
2018-01-27T00:25:03.159Z,83.73
2018-01-27T00:26:03.147Z,84.11
2018-01-27T00:27:03.143Z,84.01
2018-01-27T00:28:03.140Z,84.01
2018-01-27T00:29:03.128Z,84.01
2018-01-27T00:30:03.124Z,84.11
2018-01-27T00:31:03.112Z,83.54
2018-01-27T00:32:03.112Z,83.92
2018-01-27T00:33:03.101Z,83.92
2018-01-27T00:34:03.104Z,84.01
2018-01-27T00:35:03.095Z,83.83
2018-01-27T00:36:03.086Z,83.64
2018-01-27T00:37:03.077Z,84.11
2018-01-27T00:38:03.079Z,84.01
2018-01-27T00:39:03.070Z,83.36
2018-01-27T00:40:03.062Z,83.92
2018-01-27T00:41:03.062Z,83.92
2018-01-27T00:42:03.046Z,84.21
2018-01-27T00:43:03.044Z,83.73
2018-01-27T00:44:03.044Z,84.49
2018-01-27T00:45:03.033Z,84.40
2018-01-27T00:46:03.024Z,84.21
2018-01-27T00:47:03.020Z,84.59
2018-01-27T00:48:03.017Z,84.97
2018-01-27T00:49:03.004Z,84.68
2018-01-27T00:50:03.008Z,85.06
2018-01-27T00:51:02.997Z,84.97
2018-01-27T00:52:02.993Z,84.40
2018-01-27T00:53:02.986Z,84.21
2018-01-27T00:54:02.982Z,84.68
2018-01-27T00:55:02.971Z,84.49
2018-01-27T00:56:02.968Z,84.68
2018-01-27T00:57:02.963Z,84.97
2018-01-27T00:58:02.954Z,85.06
2018-01-27T00:59:02.952Z,85.25
2018-01-27T01:00:02.946Z,84.97
2018-01-27T01:01:02.934Z,85.53
2018-01-27T01:02:02.928Z,85.06
2018-01-27T01:03:02.917Z,85.06
2018-01-27T01:04:02.917Z,84.97
2018-01-27T01:05:02.907Z,85.06
2018-01-27T01:06:02.909Z,85.35
2018-01-27T01:07:02.899Z,85.16
2018-01-27T01:08:02.888Z,85.16
2018-01-27T01:09:02.881Z,85.06
2018-01-27T01:10:02.886Z,85.06
2018-01-27T01:11:02.873Z,84.97
2018-01-27T01:12:02.870Z,85.25
2018-01-27T01:13:02.859Z,85.30
2018-01-27T01:14:02.849Z,85.72
2018-01-27T01:15:02.847Z,85.72
2018-01-27T01:16:02.843Z,85.72
2018-01-27T01:17:02.835Z,85.35
2018-01-27T01:18:02.828Z,85.63
2018-01-27T01:19:02.821Z,85.53
2018-01-27T01:20:02.814Z,85.72
2018-01-27T01:21:02.810Z,86.01
2018-01-27T01:22:02.805Z,86.01
2018-01-27T01:23:02.802Z,86.54
2018-01-27T01:24:02.800Z,86.39
2018-01-27T01:25:02.779Z,86.20
2018-01-27T01:26:02.777Z,86.35
2018-01-27T01:27:02.771Z,86.39
2018-01-27T01:28:02.765Z,86.44
2018-01-27T01:29:02.756Z,86.58
2018-01-27T01:30:02.749Z,86.35
2018-01-27T01:31:02.745Z,85.97
2018-01-27T01:32:02.751Z,86.07
2018-01-27T01:33:02.734Z,85.97
2018-01-27T01:34:02.722Z,86.20
2018-01-27T01:35:02.717Z,86.16
2018-01-27T01:36:02.712Z,86.07
2018-01-27T01:37:02.702Z,85.97
2018-01-27T01:38:02.697Z,86.11
2018-01-27T01:39:02.691Z,86.01
2018-01-27T01:40:02.681Z,86.07
2018-01-27T01:41:02.674Z,86.39
2018-01-27T01:42:02.671Z,86.72
2018-01-27T01:43:02.664Z,86.49
2018-01-27T01:44:02.663Z,86.77
2018-01-27T01:45:02.656Z,86.77
2018-01-27T01:46:02.699Z,86.72
2018-01-27T01:47:02.636Z,86.82
2018-01-27T01:48:02.632Z,86.82
2018-01-27T01:49:02.624Z,86.63
2018-01-27T01:50:02.614Z,86.91
2018-01-27T01:51:02.614Z,87.01
2018-01-27T01:52:02.604Z,87.05
2018-01-27T01:53:02.595Z,86.91
2018-01-27T01:54:02.616Z,87.01
2018-01-27T01:55:02.589Z,87.11
2018-01-27T01:56:02.577Z,87.11
2018-01-27T01:57:02.570Z,87.01
2018-01-27T01:58:02.568Z,87.30
2018-01-27T01:59:02.575Z,87.30
2018-01-27T02:00:02.551Z,87.49
2018-01-27T02:01:02.548Z,87.58
2018-01-27T02:02:02.538Z,87.39
2018-01-27T02:03:02.528Z,86.54
2018-01-27T02:04:02.526Z,86.96
2018-01-27T02:05:02.526Z,87.01
2018-01-27T02:06:02.511Z,87.20
2018-01-27T02:07:02.504Z,87.39
2018-01-27T02:08:02.500Z,87.34
2018-01-27T02:09:02.488Z,87.24
2018-01-27T02:10:02.486Z,87.53
2018-01-27T02:11:02.479Z,87.53
2018-01-27T02:12:02.475Z,87.53
2018-01-27T02:13:02.461Z,86.68
2018-01-27T02:14:02.459Z,87.20
2018-01-27T02:15:02.451Z,87.24
2018-01-27T02:16:02.449Z,87.43
2018-01-27T02:17:02.442Z,87.39
2018-01-27T02:18:02.430Z,86.87
2018-01-27T02:19:02.425Z,87.49
2018-01-27T02:20:02.427Z,87.24
2018-01-27T02:21:02.416Z,87.20
2018-01-27T02:22:02.407Z,87.01
2018-01-27T02:23:02.395Z,87.43
2018-01-27T02:24:02.420Z,87.20
2018-01-27T02:25:02.387Z,87.30
2018-01-27T02:26:02.384Z,87.62
2018-01-27T02:27:02.375Z,87.87
2018-01-27T02:28:02.369Z,87.77
2018-01-27T02:29:02.361Z,88.06
2018-01-27T02:30:02.354Z,88.06
2018-01-27T02:31:02.345Z,88.10
2018-01-27T02:32:02.335Z,87.96
2018-01-27T02:33:02.328Z,87.68
2018-01-27T02:34:02.326Z,88.06
2018-01-27T02:35:02.320Z,88.15
2018-01-27T02:36:02.312Z,88.15
2018-01-27T02:37:02.305Z,87.87
2018-01-27T02:38:02.302Z,87.24
2018-01-27T02:39:02.298Z,87.43
2018-01-27T02:40:02.594Z,87.77
2018-01-27T02:41:02.287Z,87.30
2018-01-27T02:42:02.268Z,87.43
2018-01-27T02:43:02.262Z,88.01
2018-01-27T02:44:02.262Z,87.34
2018-01-27T02:45:02.260Z,87.91
2018-01-27T02:46:02.347Z,88.01
2018-01-27T02:47:02.237Z,88.01
2018-01-27T02:48:02.240Z,88.10
2018-01-27T02:49:02.233Z,87.91
2018-01-27T02:50:02.225Z,87.91
2018-01-27T02:51:02.217Z,87.91
2018-01-27T02:52:02.210Z,87.96
2018-01-27T02:53:02.199Z,87.91
2018-01-27T02:54:02.196Z,88.43
2018-01-27T02:55:02.189Z,88.72
2018-01-27T02:56:02.185Z,88.15
2018-01-27T02:57:02.180Z,88.81
2018-01-27T02:58:02.184Z,89.14
2018-01-27T02:59:02.163Z,88.81
2018-01-27T03:00:02.161Z,88.91
2018-01-27T03:01:02.156Z,89.10
2018-01-27T03:02:02.141Z,88.81
2018-01-27T03:03:02.135Z,88.91
2018-01-27T03:04:02.126Z,89.20
2018-01-27T03:05:02.123Z,89.00
2018-01-27T03:06:02.117Z,89.20
2018-01-27T03:07:02.115Z,89.29
2018-01-27T03:08:02.104Z,89.29
2018-01-27T03:09:02.096Z,89.29
2018-01-27T03:10:02.092Z,89.20
2018-01-27T03:11:02.088Z,89.00
2018-01-27T03:12:02.084Z,88.91
2018-01-27T03:13:02.072Z,89.58
2018-01-27T03:14:02.066Z,89.86
2018-01-27T03:15:02.055Z,89.76
2018-01-27T03:16:02.058Z,89.86
2018-01-27T03:17:02.045Z,89.95
2018-01-27T03:18:02.041Z,89.86
2018-01-27T03:19:02.033Z,89.95
2018-01-27T03:20:02.037Z,90.05
2018-01-27T03:21:02.020Z,89.58
2018-01-27T03:22:02.015Z,89.86
2018-01-27T03:23:02.008Z,89.67
2018-01-27T03:24:01.994Z,89.86
2018-01-27T03:25:01.992Z,89.76
2018-01-27T03:26:01.985Z,89.86
2018-01-27T03:27:01.982Z,89.67
2018-01-27T03:28:01.974Z,89.95
2018-01-27T03:29:01.967Z,89.39
2018-01-27T03:30:01.958Z,89.48
2018-01-27T03:31:01.952Z,89.39
2018-01-27T03:32:01.952Z,89.86
2018-01-27T03:33:01.947Z,90.43
2018-01-27T03:34:01.936Z,90.14
2018-01-27T03:35:01.943Z,90.43
2018-01-27T03:36:01.920Z,90.71
2018-01-27T03:37:01.914Z,91.00
2018-01-27T03:38:01.909Z,90.81
2018-01-27T03:39:01.906Z,90.52
2018-01-27T03:40:01.889Z,90.43
2018-01-27T03:41:01.883Z,91.00
2018-01-27T03:42:01.892Z,90.90
2018-01-27T03:43:01.892Z,90.90
2018-01-27T03:44:01.872Z,91.00
2018-01-27T03:45:01.860Z,91.28
2018-01-27T03:46:01.849Z,90.81
2018-01-27T03:47:01.841Z,90.90
2018-01-27T03:48:01.843Z,90.90
2018-01-27T03:49:01.834Z,91.00
2018-01-27T03:50:01.827Z,91.09
2018-01-27T03:51:01.816Z,92.04
2018-01-27T03:52:01.809Z,91.94
2018-01-27T03:53:01.800Z,91.38
2018-01-27T03:54:01.795Z,91.47
2018-01-27T03:55:01.788Z,91.66
2018-01-27T03:56:01.780Z,91.38
2018-01-27T03:57:01.776Z,91.94
2018-01-27T03:58:01.769Z,91.94
2018-01-27T03:59:01.763Z,91.94
2018-01-27T04:00:01.755Z,91.56
2018-01-27T04:01:01.746Z,92.23
2018-01-27T04:02:01.740Z,92.23
2018-01-27T04:03:01.731Z,92.33
2018-01-27T04:04:01.980Z,92.33
2018-01-27T04:05:01.718Z,91.94
2018-01-27T04:06:01.712Z,91.85
2018-01-27T04:07:01.724Z,92.90
2018-01-27T04:08:01.695Z,91.85
2018-01-27T04:09:01.694Z,92.33
2018-01-27T04:10:01.692Z,91.75
2018-01-27T04:11:01.682Z,91.75
2018-01-27T04:12:01.666Z,91.66
2018-01-27T04:13:01.665Z,91.75
2018-01-27T04:14:01.656Z,91.85
2018-01-27T04:15:01.656Z,91.28
2018-01-27T04:16:01.647Z,91.75
2018-01-27T04:17:01.639Z,91.75
2018-01-27T04:18:01.629Z,91.94
2018-01-27T04:19:01.623Z,91.47
2018-01-27T04:20:01.620Z,91.28
2018-01-27T04:21:01.613Z,91.85
2018-01-27T04:22:01.607Z,91.28
2018-01-27T04:23:01.596Z,91.85
2018-01-27T04:24:01.592Z,91.56
2018-01-27T04:25:01.584Z,90.90
2018-01-27T04:26:01.579Z,91.09
2018-01-27T04:27:01.572Z,90.90
2018-01-27T04:28:01.565Z,90.90
2018-01-27T04:29:01.561Z,90.81
2018-01-27T04:30:01.560Z,90.81
2018-01-27T04:31:01.550Z,91.09
2018-01-27T04:32:01.542Z,90.90
2018-01-27T04:33:01.534Z,91.00
2018-01-27T04:34:01.527Z,90.90
2018-01-27T04:35:01.518Z,91.09
2018-01-27T04:36:01.513Z,90.90
2018-01-27T04:37:01.504Z,90.90
2018-01-27T04:38:01.503Z,91.00
2018-01-27T04:39:01.503Z,90.90
2018-01-27T04:40:01.497Z,90.62
2018-01-27T04:41:01.485Z,90.81
2018-01-27T04:42:01.475Z,90.81
2018-01-27T04:43:01.470Z,91.00
2018-01-27T04:44:01.464Z,90.52
2018-01-27T04:45:01.458Z,91.09
2018-01-27T04:46:01.451Z,91.00
2018-01-27T04:47:01.447Z,91.09
2018-01-27T04:48:01.442Z,90.90
2018-01-27T04:49:01.432Z,90.90
2018-01-27T04:50:01.430Z,90.81
2018-01-27T04:51:01.422Z,91.00
2018-01-27T04:52:01.412Z,91.00
2018-01-27T04:53:01.405Z,90.62
2018-01-27T04:54:01.407Z,91.00
2018-01-27T04:55:01.399Z,91.09
2018-01-27T04:56:01.390Z,90.90
2018-01-27T04:57:01.388Z,90.43
2018-01-27T04:58:01.376Z,90.33
2018-01-27T04:59:01.372Z,90.90
2018-01-27T05:00:01.371Z,91.00
2018-01-27T05:01:01.360Z,91.00
2018-01-27T05:02:01.350Z,90.90
2018-01-27T05:03:01.345Z,90.90
2018-01-27T05:04:01.338Z,90.90
2018-01-27T05:05:01.335Z,90.81
2018-01-27T05:06:01.333Z,90.71
2018-01-27T05:07:01.328Z,89.86
2018-01-27T05:08:01.318Z,89.67
2018-01-27T05:09:01.304Z,89.86
2018-01-27T05:10:01.303Z,89.95
2018-01-27T05:11:01.297Z,89.86
2018-01-27T05:12:01.309Z,89.67
2018-01-27T05:13:01.290Z,89.86
2018-01-27T05:14:01.278Z,89.86
2018-01-27T05:15:01.272Z,89.67
2018-01-27T05:16:01.273Z,89.48
2018-01-27T05:17:01.261Z,89.86
2018-01-27T05:18:01.250Z,89.86
2018-01-27T05:19:01.243Z,90.52
2018-01-27T05:20:01.240Z,90.33
2018-01-27T05:21:01.236Z,90.52
2018-01-27T05:22:01.230Z,90.71
2018-01-27T05:23:01.224Z,89.95
2018-01-27T05:24:01.213Z,90.24
2018-01-27T05:25:01.213Z,90.81
2018-01-27T05:26:01.206Z,90.33
2018-01-27T05:27:01.203Z,90.33
2018-01-27T05:28:01.448Z,90.52
2018-01-27T05:29:01.188Z,90.33
2018-01-27T05:30:01.181Z,90.52
2018-01-27T05:31:01.169Z,90.14
2018-01-27T05:32:01.171Z,90.62
2018-01-27T05:33:01.165Z,90.24
2018-01-27T05:34:01.151Z,90.43
2018-01-27T05:35:01.148Z,90.05
2018-01-27T05:36:01.138Z,89.39
2018-01-27T05:37:01.136Z,88.72
2018-01-27T05:38:01.135Z,88.43
2018-01-27T05:39:01.127Z,87.87
2018-01-27T05:40:01.114Z,87.87
2018-01-27T05:41:01.108Z,88.34
2018-01-27T05:42:01.106Z,87.68
2018-01-27T05:43:01.103Z,88.06
2018-01-27T05:44:01.093Z,87.39
2018-01-27T05:45:01.086Z,87.77
2018-01-27T05:46:01.085Z,87.68
2018-01-27T05:47:01.084Z,87.20
2018-01-27T05:48:01.089Z,87.43
2018-01-27T05:49:01.065Z,87.01
2018-01-27T05:50:01.054Z,87.20
2018-01-27T05:51:01.052Z,87.34
2018-01-27T05:52:01.047Z,87.49
2018-01-27T05:53:01.034Z,87.30
2018-01-27T05:54:01.038Z,87.43
2018-01-27T05:55:01.028Z,87.30
2018-01-27T05:56:01.025Z,87.82
2018-01-27T05:57:01.028Z,87.82
2018-01-27T05:58:01.007Z,88.15
2018-01-27T05:59:01.001Z,87.96
2018-01-27T06:00:00.998Z,88.06
2018-01-27T06:01:00.989Z,87.77
2018-01-27T06:02:00.981Z,88.72
2018-01-27T06:03:00.973Z,88.53
2018-01-27T06:04:00.970Z,88.72
2018-01-27T06:05:00.962Z,88.91
2018-01-27T06:06:00.958Z,88.72
2018-01-27T06:07:00.945Z,88.91
2018-01-27T06:08:00.941Z,88.81
2018-01-27T06:09:00.934Z,89.00
2018-01-27T06:10:00.932Z,88.91
2018-01-27T06:11:00.930Z,89.20
2018-01-27T06:12:00.915Z,89.48
2018-01-27T06:13:00.909Z,89.48
2018-01-27T06:14:00.907Z,88.91
2018-01-27T06:15:00.902Z,88.62
2018-01-27T06:16:00.895Z,89.00
2018-01-27T06:17:00.884Z,88.72
2018-01-27T06:18:00.878Z,88.72
2018-01-27T06:19:00.873Z,88.81
2018-01-27T06:20:00.868Z,88.91
2018-01-27T06:21:00.860Z,88.91
2018-01-27T06:22:00.849Z,88.62
2018-01-27T06:23:00.842Z,88.81
2018-01-27T06:24:00.834Z,88.91
2018-01-27T06:25:00.826Z,88.81
2018-01-27T06:26:00.829Z,88.62
2018-01-27T06:27:00.824Z,88.62
2018-01-27T06:28:00.808Z,88.62
2018-01-27T06:29:00.800Z,88.24
2018-01-27T06:30:00.799Z,88.15
2018-01-27T06:31:00.793Z,88.53
2018-01-27T06:32:00.792Z,88.43
2018-01-27T06:33:00.782Z,88.62
2018-01-27T06:34:00.774Z,88.62
2018-01-27T06:35:00.763Z,88.43
2018-01-27T06:36:00.766Z,88.62
2018-01-27T06:37:00.758Z,87.68
2018-01-27T06:38:00.745Z,88.06
2018-01-27T06:39:00.736Z,88.06
2018-01-27T06:40:00.735Z,88.34
2018-01-27T06:41:00.724Z,87.87
2018-01-27T06:42:00.722Z,87.87
2018-01-27T06:43:00.716Z,87.87
2018-01-27T06:44:00.704Z,88.06
2018-01-27T06:45:00.697Z,88.06
2018-01-27T06:46:00.700Z,87.68
2018-01-27T06:47:00.694Z,87.30
2018-01-27T06:48:00.685Z,87.11
2018-01-27T06:49:00.678Z,87.30
2018-01-27T06:50:00.670Z,87.58
2018-01-27T06:51:00.663Z,87.30
2018-01-27T06:52:00.658Z,87.20
2018-01-27T06:53:00.649Z,87.20
2018-01-27T06:54:00.638Z,87.20
2018-01-27T06:55:00.633Z,87.05
2018-01-27T06:56:00.629Z,86.87
2018-01-27T06:57:00.650Z,86.68
2018-01-27T06:58:00.723Z,87.24
2018-01-27T06:59:00.615Z,86.96
2018-01-27T07:00:00.603Z,87.53
2018-01-27T07:01:00.595Z,86.96
2018-01-27T07:02:00.598Z,87.15
2018-01-27T07:03:00.590Z,86.87
2018-01-27T07:04:00.580Z,86.49
2018-01-27T07:05:00.574Z,86.30
2018-01-27T07:06:00.562Z,86.58
2018-01-27T07:07:00.566Z,86.87
2018-01-27T07:08:00.557Z,86.30
2018-01-27T07:09:00.551Z,86.20
2018-01-27T07:10:00.540Z,86.11
2018-01-27T07:11:00.535Z,86.39
2018-01-27T07:12:00.526Z,86.39
2018-01-27T07:13:00.519Z,86.77
2018-01-27T07:14:00.516Z,86.77
2018-01-27T07:15:00.510Z,86.68
2018-01-27T07:16:00.539Z,86.58
2018-01-27T07:17:00.497Z,86.11
2018-01-27T07:18:00.497Z,86.49
2018-01-27T07:19:00.489Z,86.01
2018-01-27T07:20:00.484Z,86.49
2018-01-27T07:21:00.474Z,86.20
2018-01-27T07:22:00.466Z,86.20
2018-01-27T07:23:00.458Z,86.77
2018-01-27T07:24:00.455Z,86.77
2018-01-27T07:25:00.451Z,86.87
2018-01-27T07:26:00.443Z,86.87
2018-01-27T07:27:00.430Z,87.05
2018-01-27T07:28:00.426Z,87.24
2018-01-27T07:29:00.424Z,87.82
2018-01-27T07:30:00.419Z,87.53
2018-01-27T07:31:00.416Z,87.34
2018-01-27T07:32:00.403Z,87.05
2018-01-27T07:33:00.398Z,87.34
2018-01-27T07:34:00.394Z,87.24
2018-01-27T07:35:00.387Z,87.34
2018-01-27T07:36:00.379Z,87.34
2018-01-27T07:37:00.374Z,87.53
2018-01-27T07:38:00.362Z,87.34
2018-01-27T07:39:00.355Z,87.34
2018-01-27T07:40:00.356Z,87.24
2018-01-27T07:41:00.350Z,87.15
2018-01-27T07:42:00.340Z,87.05
2018-01-27T07:43:00.337Z,87.24
2018-01-27T07:44:00.333Z,87.34
2018-01-27T07:45:00.322Z,87.24
2018-01-27T07:46:00.320Z,87.53
2018-01-27T07:47:00.310Z,87.72
2018-01-27T07:48:00.304Z,87.72
2018-01-27T07:49:00.300Z,87.34
2018-01-27T07:50:00.293Z,87.15
2018-01-27T07:51:00.289Z,87.15
2018-01-27T07:52:00.285Z,87.15
2018-01-27T07:53:00.272Z,87.24
2018-01-27T07:54:00.268Z,87.34
2018-01-27T07:55:00.260Z,87.82
2018-01-27T07:56:00.258Z,87.72
2018-01-27T07:57:00.249Z,87.72
2018-01-27T07:58:00.239Z,86.77
2018-01-27T07:59:00.232Z,87.91
2018-01-27T08:00:00.224Z,87.43
2018-01-27T08:01:00.221Z,87.24
2018-01-27T08:02:00.226Z,87.53
2018-01-27T08:03:00.209Z,87.72
2018-01-27T08:04:00.197Z,86.87
2018-01-27T08:05:00.194Z,86.87
2018-01-27T08:06:00.189Z,87.62
2018-01-27T08:07:00.183Z,87.05
2018-01-27T08:08:00.180Z,87.82
2018-01-27T08:09:00.172Z,86.87
2018-01-27T08:10:00.170Z,87.15
2018-01-27T08:11:00.175Z,87.24
2018-01-27T08:12:00.206Z,87.62
2018-01-27T08:13:00.148Z,87.05
2018-01-27T08:14:00.137Z,87.72
2018-01-27T08:15:00.125Z,87.91
2018-01-27T08:16:00.128Z,87.91
2018-01-27T08:17:00.118Z,87.43
2018-01-27T08:18:00.112Z,87.91
2018-01-27T08:19:00.109Z,87.87
2018-01-27T08:20:00.100Z,87.68
2018-01-27T08:21:00.088Z,87.91
2018-01-27T08:22:00.085Z,88.29
2018-01-27T08:23:00.081Z,87.96
2018-01-27T08:24:00.070Z,88.53
2018-01-27T08:25:00.070Z,88.43
2018-01-27T08:26:00.053Z,88.43
2018-01-27T08:27:00.047Z,88.43
2018-01-27T08:28:00.050Z,88.53
2018-01-27T08:29:00.039Z,88.76
2018-01-27T08:30:00.042Z,88.67
2018-01-27T08:31:00.027Z,88.39
2018-01-27T08:32:00.020Z,88.48
2018-01-27T08:33:00.007Z,88.76
2018-01-27T08:34:00.010Z,88.53
2018-01-27T08:35:00.001Z,88.39
2018-01-27T08:35:59.985Z,88.43
2018-01-27T08:36:59.984Z,88.29
2018-01-27T08:37:59.977Z,88.72
2018-01-27T08:38:59.970Z,88.48
2018-01-27T08:39:59.966Z,88.15
2018-01-27T08:40:59.960Z,88.91
2018-01-27T08:41:59.949Z,88.81
2018-01-27T08:42:59.943Z,89.00
2018-01-27T08:43:59.941Z,89.00
2018-01-27T08:44:59.936Z,88.81
2018-01-27T08:45:59.921Z,88.72
2018-01-27T08:46:59.913Z,88.72
2018-01-27T08:47:59.912Z,88.95
2018-01-27T08:48:59.904Z,88.86
2018-01-27T08:49:59.903Z,88.86
2018-01-27T08:50:59.893Z,88.91
2018-01-27T08:51:59.890Z,88.76
2018-01-27T08:52:59.878Z,89.05
2018-01-27T08:53:59.868Z,88.76
2018-01-27T08:54:59.860Z,88.76
2018-01-27T08:55:59.852Z,88.95
2018-01-27T08:56:59.844Z,88.86
2018-01-27T08:57:59.843Z,89.05
2018-01-27T08:58:59.842Z,88.67
2018-01-27T08:59:59.831Z,88.76
2018-01-27T09:00:59.821Z,88.29
2018-01-27T09:01:59.821Z,88.76
2018-01-27T09:02:59.812Z,88.48
2018-01-27T09:03:59.802Z,88.76
2018-01-27T09:04:59.802Z,88.20
2018-01-27T09:05:59.790Z,87.82
2018-01-27T09:06:59.778Z,87.72
2018-01-27T09:07:59.777Z,87.82
2018-01-27T09:08:59.769Z,87.91
2018-01-27T09:09:59.764Z,87.91
2018-01-27T09:10:59.758Z,87.91
2018-01-27T09:11:59.750Z,88.29
2018-01-27T09:12:59.741Z,87.91
2018-01-27T09:13:59.777Z,87.43
2018-01-27T09:14:59.733Z,87.15
2018-01-27T09:15:59.720Z,87.15
2018-01-27T09:16:59.719Z,87.24
2018-01-27T09:17:59.714Z,87.53
2018-01-27T09:18:59.703Z,86.96
2018-01-27T09:19:59.700Z,87.53
2018-01-27T09:20:59.693Z,86.96
2018-01-27T09:21:59.685Z,87.05
2018-01-27T09:22:59.676Z,87.72
2018-01-27T09:23:59.682Z,86.96
2018-01-27T09:24:59.672Z,87.15
2018-01-27T09:25:59.657Z,87.53
2018-01-27T09:26:59.651Z,86.68
2018-01-27T09:27:59.644Z,86.39
2018-01-27T09:28:59.641Z,86.01
2018-01-27T09:29:59.640Z,85.72
2018-01-27T09:30:59.628Z,85.72
2018-01-27T09:31:59.622Z,85.63
2018-01-27T09:32:59.613Z,85.82
2018-01-27T09:33:59.611Z,85.06
2018-01-27T09:34:59.607Z,85.25
2018-01-27T09:35:59.603Z,85.06
2018-01-27T09:36:59.595Z,84.78
2018-01-27T09:37:59.587Z,85.11
2018-01-27T09:38:59.575Z,84.82
2018-01-27T09:39:59.573Z,84.53
2018-01-27T09:40:59.570Z,84.44
2018-01-27T09:41:59.564Z,84.34
2018-01-27T09:42:59.554Z,84.06
2018-01-27T09:43:59.547Z,83.59
2018-01-27T09:44:59.548Z,83.68
2018-01-27T09:45:59.538Z,83.39
2018-01-27T09:46:59.532Z,82.87
2018-01-27T09:47:59.525Z,82.39
2018-01-27T09:48:59.513Z,81.73
2018-01-27T09:49:59.517Z,81.82
2018-01-27T09:50:59.506Z,82.01
2018-01-27T09:51:59.502Z,81.82
2018-01-27T09:52:59.495Z,81.06
2018-01-27T09:53:59.488Z,80.77
2018-01-27T09:54:59.480Z,79.25
2018-01-27T09:55:59.482Z,80.11
2018-01-27T09:56:59.470Z,80.11
2018-01-27T09:57:59.561Z,79.16
2018-01-27T09:58:59.458Z,78.78
2018-01-27T09:59:59.451Z,79.16
2018-01-27T10:00:59.443Z,79.16
2018-01-27T10:01:59.444Z,78.50
2018-01-27T10:02:59.437Z,78.30
2018-01-27T10:03:59.425Z,77.92
2018-01-27T10:04:59.422Z,78.59
2018-01-27T10:05:59.417Z,77.36
2018-01-27T10:06:59.412Z,77.17
2018-01-27T10:07:59.410Z,76.31
2018-01-27T10:08:59.402Z,75.74
2018-01-27T10:09:59.392Z,74.60
2018-01-27T10:10:59.392Z,75.17
2018-01-27T10:11:59.387Z,76.31
2018-01-27T10:12:59.383Z,75.55
2018-01-27T10:13:59.374Z,75.89
2018-01-27T10:14:59.368Z,75.42
2018-01-27T10:15:59.368Z,75.79
2018-01-27T10:16:59.350Z,76.08
2018-01-27T10:17:59.349Z,75.84
2018-01-27T10:18:59.343Z,76.03
2018-01-27T10:19:59.337Z,76.03
2018-01-27T10:20:59.329Z,74.60
2018-01-27T10:21:59.329Z,73.55
2018-01-27T10:22:59.322Z,73.46
2018-01-27T10:23:59.320Z,74.41
2018-01-27T10:24:59.324Z,74.31
2018-01-27T10:25:59.305Z,74.69
2018-01-27T10:26:59.293Z,74.88
2018-01-27T10:27:59.292Z,75.07
2018-01-27T10:28:59.285Z,75.17
2018-01-27T10:29:59.278Z,74.98
2018-01-27T10:30:59.270Z,75.07
2018-01-27T10:31:59.266Z,75.36
2018-01-27T10:32:59.261Z,74.98
2018-01-27T10:33:59.261Z,74.69
2018-01-27T10:34:59.254Z,73.65
2018-01-27T10:35:59.244Z,74.12
2018-01-27T10:36:59.234Z,74.22
2018-01-27T10:37:59.232Z,74.60
2018-01-27T10:38:59.233Z,74.69
2018-01-27T10:39:59.227Z,74.69
2018-01-27T10:40:59.216Z,74.75
2018-01-27T10:41:59.210Z,74.85
2018-01-27T10:42:59.201Z,74.75
2018-01-27T10:43:59.199Z,75.23
2018-01-27T10:44:59.194Z,75.70
2018-01-27T10:45:59.183Z,75.23
2018-01-27T10:46:59.178Z,75.13
2018-01-27T10:47:59.169Z,75.42
2018-01-27T10:48:59.168Z,75.89
2018-01-27T10:49:59.161Z,76.08
2018-01-27T10:50:59.154Z,76.08
2018-01-27T10:51:59.147Z,75.79
2018-01-27T10:52:59.141Z,74.66
2018-01-27T10:53:59.137Z,74.47
2018-01-27T10:54:59.133Z,74.94
2018-01-27T10:55:59.127Z,74.94
2018-01-27T10:56:59.115Z,74.75
2018-01-27T10:57:59.109Z,74.56
2018-01-27T10:58:59.102Z,74.47
2018-01-27T10:59:59.094Z,74.56
2018-01-27T11:00:59.088Z,74.66
2018-01-27T11:01:59.086Z,74.85
2018-01-27T11:02:59.078Z,74.37
2018-01-27T11:03:59.076Z,74.56
2018-01-27T11:04:59.067Z,74.75
2018-01-27T11:05:59.056Z,74.27
2018-01-27T11:06:59.053Z,75.04
2018-01-27T11:07:59.045Z,74.94
2018-01-27T11:08:59.041Z,75.04
2018-01-27T11:09:59.228Z,75.23
2018-01-27T11:10:59.021Z,74.94
2018-01-27T11:11:59.019Z,75.23
2018-01-27T11:12:59.013Z,74.66
2018-01-27T11:13:59.009Z,75.23
2018-01-27T11:14:59.002Z,74.75
2018-01-27T11:15:58.993Z,74.37
2018-01-27T11:16:58.984Z,73.90
2018-01-27T11:17:58.981Z,74.37
2018-01-27T11:18:58.981Z,74.47
2018-01-27T11:19:58.968Z,75.04
2018-01-27T11:20:58.959Z,75.23
2018-01-27T11:21:58.955Z,74.75
2018-01-27T11:22:58.948Z,73.90
2018-01-27T11:23:58.943Z,74.18
2018-01-27T11:24:58.939Z,74.27
2018-01-27T11:25:58.925Z,73.90
2018-01-27T11:26:58.919Z,74.08
2018-01-27T11:27:59.009Z,74.08
2018-01-27T11:28:58.902Z,74.27
2018-01-27T11:29:58.901Z,74.56
2018-01-27T11:30:58.897Z,74.75
2018-01-27T11:31:58.886Z,74.08
2018-01-27T11:32:58.882Z,74.08
2018-01-27T11:33:58.877Z,74.27
2018-01-27T11:34:58.868Z,74.27
2018-01-27T11:35:58.866Z,74.18
2018-01-27T11:36:58.857Z,74.56
2018-01-27T11:37:58.844Z,74.08
2018-01-27T11:38:58.837Z,73.90
2018-01-27T11:39:58.834Z,73.90
2018-01-27T11:40:58.827Z,74.18
2018-01-27T11:41:58.816Z,74.37
2018-01-27T11:42:58.815Z,74.37
2018-01-27T11:43:58.805Z,74.18
2018-01-27T11:44:58.800Z,74.47
2018-01-27T11:45:59.046Z,74.37
2018-01-27T11:46:58.791Z,74.37
2018-01-27T11:47:58.784Z,74.85
2018-01-27T11:48:58.773Z,75.42
2018-01-27T11:49:58.770Z,74.66
2018-01-27T11:50:58.767Z,75.23
2018-01-27T11:51:58.754Z,74.75
2018-01-27T11:52:58.748Z,74.85
2018-01-27T11:53:58.736Z,74.27
2018-01-27T11:54:58.779Z,74.75
2018-01-27T11:55:58.731Z,74.47
2018-01-27T11:56:58.724Z,74.66
2018-01-27T11:57:58.712Z,74.47
2018-01-27T11:58:58.710Z,74.66
2018-01-27T11:59:58.697Z,74.56
2018-01-27T12:00:58.691Z,74.85
2018-01-27T12:01:58.690Z,74.56
2018-01-27T12:02:58.681Z,74.75
2018-01-27T12:03:58.673Z,74.27
2018-01-27T12:04:58.667Z,74.27
2018-01-27T12:05:58.666Z,74.18
2018-01-27T12:06:58.658Z,74.47
2018-01-27T12:07:58.650Z,74.75
2018-01-27T12:08:58.642Z,74.08
2018-01-27T12:09:58.635Z,74.12
2018-01-27T12:10:58.626Z,73.99
2018-01-27T12:11:58.625Z,74.56
2018-01-27T12:12:58.619Z,74.47
2018-01-27T12:13:58.610Z,73.90
2018-01-27T12:14:58.604Z,74.27
2018-01-27T12:15:58.897Z,74.08
2018-01-27T12:16:58.588Z,74.47
2018-01-27T12:17:58.589Z,74.37
2018-01-27T12:18:58.586Z,74.66
2018-01-27T12:19:58.570Z,74.47
2018-01-27T12:20:58.563Z,75.23
2018-01-27T12:21:58.962Z,75.42
2018-01-27T12:22:58.560Z,75.32
2018-01-27T12:23:58.554Z,74.18
2018-01-27T12:24:58.545Z,74.08
2018-01-27T12:25:58.533Z,74.27
2018-01-27T12:26:58.527Z,74.08
2018-01-27T12:27:58.827Z,74.27
2018-01-27T12:28:58.522Z,74.56
2018-01-27T12:29:58.512Z,74.18
2018-01-27T12:30:58.514Z,73.90
2018-01-27T12:31:58.513Z,74.18
2018-01-27T12:32:58.487Z,74.47
2018-01-27T12:33:58.788Z,73.99
2018-01-27T12:34:58.482Z,74.08
2018-01-27T12:35:58.470Z,74.08
2018-01-27T12:36:58.466Z,74.75
2018-01-27T12:37:58.462Z,73.90
2018-01-27T12:38:58.463Z,73.42
2018-01-27T12:39:58.847Z,73.04
2018-01-27T12:40:58.439Z,73.04
2018-01-27T12:41:58.434Z,73.23
2018-01-27T12:42:58.427Z,73.61
2018-01-27T12:43:58.422Z,73.42
2018-01-27T12:44:58.419Z,73.33
2018-01-27T12:45:58.709Z,74.08
2018-01-27T12:46:58.402Z,73.42
2018-01-27T12:47:58.391Z,73.42
2018-01-27T12:48:58.387Z,73.61
2018-01-27T12:49:58.383Z,73.42
2018-01-27T12:50:58.380Z,73.23
2018-01-27T12:51:58.666Z,73.14